MSC Davos — A8IG3 — position and weather

sailwx.info

Track history (hours):
 
Tides and Currents Weather Stations Pressure Air Temp Water Temp Dewpoint Dewpoint Depression Visibility Wind Speed Wind Dir Waves Ship Positions

MSC Davos

Last reported at 2015-Mar-25 20:00 UTC. Time now 2015-Mar-27 13:20 UTC.
Position N 15°18' W 097°12'.

Length 210.9 m; beam 32.3 m; draft 12 m.

Type: Cargo ship. MMSI: 636090972.

Wind from 230 at 10 knots

Waves 1.0 meters (3 feet), 5 second period

Barometer 1013.5 mb
Air temperature 29.0 ° C
Visibility: greater than 10.8 NM
Dewpoint 23.5 ° C
Water temperature 28.0 ° C

Date/timePositionNaut miles runAvg speedWind from/ knotsBaromVisibWave heightAir tempDewpointWater temp
2015-Mar-25 20:00N 15°18' W 097°12'72215.4 230 / 101013.510.8 1.029.023.528.0
2015-Mar-23 21:00N 21°06' W 108°18'75819.2 270 / 101015.510.8 0.525.316.124.0
2015-Mar-22 05:33N 31°07' W 116°52'2019.8
2015-Mar-22 04:33N 31°27' W 116°50'2019.7
2015-Mar-22 03:33N 31°46' W 116°47'24 0.8
2015-Mar-20 21:32N 32°03' W 117°07'1311.9
2015-Mar-20 20:28N 32°13' W 117°17'1111.7
2015-Mar-20 19:33N 32°21' W 117°26'1111.5
2015-Mar-20 18:33N 32°29' W 117°35'1111.2
2015-Mar-20 17:33N 32°37' W 117°44'1111.0
2015-Mar-20 16:33N 32°47' W 117°50'1111.1
2015-Mar-20 15:33N 32°57' W 117°55'1111.3
2015-Mar-20 14:33N 33°07' W 118°00'1211.7
2015-Mar-20 13:33N 33°18' W 118°06'1311.8
2015-Mar-20 12:27N 33°30' W 118°12'1210.0
2015-Mar-20 11:17N 33°41' W 118°15'2 3.3
2015-Mar-20 10:33N 33°44' W 118°15'0 0.0
2015-Mar-20 09:25N 33°44' W 118°15'0 0.0
2015-Mar-20 08:31N 33°44' W 118°15'0 0.0
2015-Mar-20 07:10N 33°44' W 118°15'0 0.1
2015-Mar-20 06:31N 33°44' W 118°15'0 0.0
2015-Mar-20 03:13N 33°44' W 118°15'0 0.1
2015-Mar-20 02:31N 33°44' W 118°15'0 0.0
2015-Mar-20 01:31N 33°44' W 118°15'0 0.0
2015-Mar-20 00:31N 33°44' W 118°15'0 0.0
2015-Mar-19 23:31N 33°44' W 118°15'0 0.0
2015-Mar-19 22:31N 33°44' W 118°15'0 0.0
2015-Mar-19 21:31N 33°44' W 118°15'0 0.0
2015-Mar-19 20:31N 33°44' W 118°15'0 0.0
2015-Mar-19 19:31N 33°44' W 118°15'0 0.0
2015-Mar-19 18:28N 33°44' W 118°15'0 0.0
2015-Mar-19 17:31N 33°44' W 118°15'0 0.0
2015-Mar-19 16:31N 33°44' W 118°15'0 0.0
2015-Mar-19 15:31N 33°44' W 118°15'0 0.0
2015-Mar-19 14:19N 33°44' W 118°15'0 0.0
2015-Mar-19 12:25N 33°44' W 118°15'0 0.1
2015-Mar-19 11:28N 33°44' W 118°15'0 0.0
2015-Mar-19 09:22N 33°44' W 118°15'0 0.0
2015-Mar-19 08:31N 33°44' W 118°15'0 0.0
2015-Mar-19 07:31N 33°44' W 118°15'0 0.0
2015-Mar-19 06:16N 33°44' W 118°15'0 0.1
2015-Mar-19 05:31N 33°44' W 118°15'0 0.0
2015-Mar-19 04:31N 33°44' W 118°15'0 0.0
2015-Mar-19 03:19N 33°44' W 118°15'0 0.0
2015-Mar-19 02:28N 33°44' W 118°15'0 0.0
2015-Mar-19 01:22N 33°44' W 118°15'0 0.0
2015-Mar-19 00:28N 33°44' W 118°15'0 0.0
2015-Mar-18 21:25N 33°44' W 118°15'0 0.0
2015-Mar-18 20:31N 33°44' W 118°15'0 0.0
2015-Mar-18 18:16N 33°44' W 118°15'0 0.0
2015-Mar-18 16:31N 33°44' W 118°15'1 0.1
2015-Mar-18 10:25N 33°43' W 118°16'8 8.9
2015-Mar-18 09:31N 33°37' W 118°11'1010.7
2015-Mar-18 08:33N 33°27' W 118°06'1110.9
2015-Mar-18 07:33N 33°17' W 118°01'1110.7
2015-Mar-18 06:33N 33°07' W 117°57'1110.7
2015-Mar-18 05:33N 32°57' W 117°53'1110.8
2015-Mar-18 04:33N 32°47' W 117°48'1111.1
2015-Mar-18 03:33N 32°36' W 117°44'1111.2
2015-Mar-18 02:33N 32°26' W 117°40'1111.2
2015-Mar-18 01:33N 32°15' W 117°36'1111.0
2015-Mar-18 00:33N 32°05' W 117°31'1110.9
2015-Mar-17 23:33N 31°54' W 117°27'1110.7
2015-Mar-17 22:33N 31°44' W 117°23'1110.7
2015-Mar-17 21:33N 31°34' W 117°20'4 4.0
2015-Mar-17 20:32N 31°30' W 117°18'6 5.6
2015-Mar-17 19:33N 31°25' W 117°15'1111.0
2015-Mar-17 18:33N 31°15' W 117°11'3411.3
2015-Mar-17 15:33N 30°43' W 116°58'1511.5
2015-Mar-17 14:13N 30°28' W 116°52'811.3
2015-Mar-17 13:33N 30°21' W 116°49'19211.6
2015-Mar-16 21:00N 27°24' W 115°24'   180 / 61014.010.8 0.523.515.818.0
Track history (hours):
 
Tides and Currents Weather Stations Pressure Air Temp Water Temp Dewpoint Dewpoint Depression Visibility Wind Speed Wind Dir Waves Ship Positions

MSC Davos

Last reported at 2015-Mar-25 20:00 UTC. Time now 2015-Mar-27 13:20 UTC.
Position N 15°18' W 097°12'.

Length 210.9 m; beam 32.3 m; draft 12 m.

Type: Cargo ship. MMSI: 636090972.

Wind from 230 at 10 knots

Waves 1.0 meters (3 feet), 5 second period

Barometer 1013.5 mb
Air temperature 29.0 ° C
Visibility: greater than 10.8 NM
Dewpoint 23.5 ° C
Water temperature 28.0 ° C

Date/timePositionNaut miles runAvg speedWind from/ knotsBaromVisibWave heightAir tempDewpointWater temp
2015-Mar-25 20:00N 15°18' W 097°12'72215.4 230 / 101013.510.8 1.029.023.528.0
2015-Mar-23 21:00N 21°06' W 108°18'75819.2 270 / 101015.510.8 0.525.316.124.0
2015-Mar-22 05:33N 31°07' W 116°52'2019.8
2015-Mar-22 04:33N 31°27' W 116°50'2019.7
2015-Mar-22 03:33N 31°46' W 116°47'24 0.8
2015-Mar-20 21:32N 32°03' W 117°07'1311.9
2015-Mar-20 20:28N 32°13' W 117°17'1111.7
2015-Mar-20 19:33N 32°21' W 117°26'1111.5
2015-Mar-20 18:33N 32°29' W 117°35'1111.2
2015-Mar-20 17:33N 32°37' W 117°44'1111.0
2015-Mar-20 16:33N 32°47' W 117°50'1111.1
2015-Mar-20 15:33N 32°57' W 117°55'1111.3
2015-Mar-20 14:33N 33°07' W 118°00'1211.7
2015-Mar-20 13:33N 33°18' W 118°06'1311.8
2015-Mar-20 12:27N 33°30' W 118°12'1210.0
2015-Mar-20 11:17N 33°41' W 118°15'2 3.3
2015-Mar-20 10:33N 33°44' W 118°15'0 0.0
2015-Mar-20 09:25N 33°44' W 118°15'0 0.0
2015-Mar-20 08:31N 33°44' W 118°15'0 0.0
2015-Mar-20 07:10N 33°44' W 118°15'0 0.1
2015-Mar-20 06:31N 33°44' W 118°15'0 0.0
2015-Mar-20 03:13N 33°44' W 118°15'0 0.1
2015-Mar-20 02:31N 33°44' W 118°15'0 0.0
2015-Mar-20 01:31N 33°44' W 118°15'0 0.0
2015-Mar-20 00:31N 33°44' W 118°15'0 0.0
2015-Mar-19 23:31N 33°44' W 118°15'0 0.0
2015-Mar-19 22:31N 33°44' W 118°15'0 0.0
2015-Mar-19 21:31N 33°44' W 118°15'0 0.0
2015-Mar-19 20:31N 33°44' W 118°15'0 0.0
2015-Mar-19 19:31N 33°44' W 118°15'0 0.0
2015-Mar-19 18:28N 33°44' W 118°15'0 0.0
2015-Mar-19 17:31N 33°44' W 118°15'0 0.0
2015-Mar-19 16:31N 33°44' W 118°15'0 0.0
2015-Mar-19 15:31N 33°44' W 118°15'0 0.0
2015-Mar-19 14:19N 33°44' W 118°15'0 0.0
2015-Mar-19 12:25N 33°44' W 118°15'0 0.1
2015-Mar-19 11:28N 33°44' W 118°15'0 0.0
2015-Mar-19 09:22N 33°44' W 118°15'0 0.0
2015-Mar-19 08:31N 33°44' W 118°15'0 0.0
2015-Mar-19 07:31N 33°44' W 118°15'0 0.0
2015-Mar-19 06:16N 33°44' W 118°15'0 0.1
2015-Mar-19 05:31N 33°44' W 118°15'0 0.0
2015-Mar-19 04:31N 33°44' W 118°15'0 0.0
2015-Mar-19 03:19N 33°44' W 118°15'0 0.0
2015-Mar-19 02:28N 33°44' W 118°15'0 0.0
2015-Mar-19 01:22N 33°44' W 118°15'0 0.0
2015-Mar-19 00:28N 33°44' W 118°15'0 0.0
2015-Mar-18 21:25N 33°44' W 118°15'0 0.0
2015-Mar-18 20:31N 33°44' W 118°15'0 0.0
2015-Mar-18 18:16N 33°44' W 118°15'0 0.0
2015-Mar-18 16:31N 33°44' W 118°15'1 0.1
2015-Mar-18 10:25N 33°43' W 118°16'8 8.9
2015-Mar-18 09:31N 33°37' W 118°11'1010.7
2015-Mar-18 08:33N 33°27' W 118°06'1110.9
2015-Mar-18 07:33N 33°17' W 118°01'1110.7
2015-Mar-18 06:33N 33°07' W 117°57'1110.7
2015-Mar-18 05:33N 32°57' W 117°53'1110.8
2015-Mar-18 04:33N 32°47' W 117°48'1111.1
2015-Mar-18 03:33N 32°36' W 117°44'1111.2
2015-Mar-18 02:33N 32°26' W 117°40'1111.2
2015-Mar-18 01:33N 32°15' W 117°36'1111.0
2015-Mar-18 00:33N 32°05' W 117°31'1110.9
2015-Mar-17 23:33N 31°54' W 117°27'1110.7
2015-Mar-17 22:33N 31°44' W 117°23'1110.7
2015-Mar-17 21:33N 31°34' W 117°20'4 4.0
2015-Mar-17 20:32N 31°30' W 117°18'6 5.6
2015-Mar-17 19:33N 31°25' W 117°15'1111.0
2015-Mar-17 18:33N 31°15' W 117°11'3411.3
2015-Mar-17 15:33N 30°43' W 116°58'1511.5
2015-Mar-17 14:13N 30°28' W 116°52'811.3
2015-Mar-17 13:33N 30°21' W 116°49'19211.6
2015-Mar-16 21:00N 27°24' W 115°24'   180 / 61014.010.8 0.523.515.818.0

Dump ship's entire track history